Time;durP1;ratioP1;P1;durP2;ratioP2;P2;SDS_P1;SDS_P2;PMS_P1;PMS_P2;Temp;Humidity;BMP_temperature;BMP_pressure;BME280_temperature;BME280_humidity;BME280_pressure;Samples;Min_cycle;Max_cycle;Signal;HPM_P1;HPM_P2
2021/10/24 00:01:00;;;;;;;17.23;8.70;;;-0.10;98.20;;;;;;2081317;28;20192;-62
2021/10/24 00:02:01;;;;;;;15.52;8.50;;;-0.10;98.20;;;;;;2081179;28;20211;-62
2021/10/24 00:03:02;;;;;;;13.77;8.00;;;-0.10;98.20;;;;;;2081370;28;20204;-62
2021/10/24 00:04:03;;;;;;;14.67;8.93;;;-0.10;98.40;;;;;;2081290;28;20184;-62
2021/10/24 00:05:06;;;;;;;16.90;8.97;;;-0.10;98.20;;;;;;2081124;28;20179;-63
2021/10/24 00:06:07;;;;;;;13.43;8.07;;;-0.10;98.30;;;;;;2081021;28;20434;-62
2021/10/24 00:07:07;;;;;;;9.67;6.73;;;-0.10;98.40;;;;;;2080956;28;20279;-63
2021/10/24 00:08:08;;;;;;;11.83;7.43;;;-0.20;99.00;;;;;;2081215;28;20192;-63
2021/10/24 00:09:09;;;;;;;11.53;7.73;;;-0.20;98.90;;;;;;2081402;28;20191;-62
2021/10/24 00:10:09;;;;;;;13.53;7.87;;;-0.10;98.90;;;;;;2081365;28;20646;-62
2021/10/24 00:11:10;;;;;;;13.90;9.20;;;-0.10;98.80;;;;;;2080939;28;20181;-63
2021/10/24 00:12:11;;;;;;;17.07;9.73;;;-0.10;98.90;;;;;;2081224;28;20178;-63
2021/10/24 00:13:12;;;;;;;15.77;8.50;;;-0.10;98.90;;;;;;2081155;28;20624;-63
2021/10/24 00:14:13;;;;;;;15.27;8.77;;;-0.10;98.90;;;;;;2081170;28;20188;-63
2021/10/24 00:15:13;;;;;;;12.17;8.10;;;-0.10;98.80;;;;;;2081300;28;20206;-63
2021/10/24 00:16:14;;;;;;;14.47;7.93;;;-0.10;98.90;;;;;;2081149;28;20235;-63
2021/10/24 00:17:16;;;;;;;12.33;8.67;;;-0.10;98.90;;;;;;2081340;28;20223;-63
2021/10/24 00:18:17;;;;;;;14.25;8.82;;;-0.10;98.90;;;;;;2081238;28;20187;-63
2021/10/24 00:19:17;;;;;;;15.90;8.27;;;-0.10;98.80;;;;;;2081413;28;20184;-62
2021/10/24 00:20:18;;;;;;;14.40;8.90;;;-0.10;98.80;;;;;;2081215;28;20424;-63
2021/10/24 00:21:19;;;;;;;18.93;8.23;;;-0.10;98.70;;;;;;2080996;28;20177;-63
2021/10/24 00:22:20;;;;;;;16.13;8.57;;;-0.10;98.60;;;;;;2081142;28;20184;-63
2021/10/24 00:23:21;;;;;;;16.02;8.82;;;-0.10;98.50;;;;;;2081327;28;20214;-63
2021/10/24 00:24:22;;;;;;;14.23;8.20;;;-0.10;98.40;;;;;;2081169;28;20199;-62
2021/10/24 00:25:22;;;;;;;13.00;8.10;;;-0.10;98.30;;;;;;2081263;28;20185;-62
2021/10/24 00:26:23;;;;;;;12.00;7.47;;;-0.10;98.40;;;;;;2081253;28;20224;-63
2021/10/24 00:27:24;;;;;;;12.47;7.30;;;0.00;98.50;;;;;;2081160;28;20206;-63
2021/10/24 00:28:25;;;;;;;10.48;7.22;;;-0.10;98.40;;;;;;2081273;28;20531;-63
2021/10/24 00:29:26;;;;;;;13.17;7.13;;;-0.10;98.60;;;;;;2081260;28;20234;-63
2021/10/24 00:30:26;;;;;;;9.37;6.47;;;0.00;98.80;;;;;;2081235;28;20667;-63
2021/10/24 00:31:27;;;;;;;11.73;7.13;;;0.00;98.80;;;;;;2080892;28;20223;-64
2021/10/24 00:32:28;;;;;;;13.50;7.60;;;0.00;98.60;;;;;;2081215;28;20212;-63
2021/10/24 00:33:28;;;;;;;15.97;8.27;;;0.00;98.60;;;;;;2081117;28;20319;-63
2021/10/24 00:34:29;;;;;;;15.77;7.63;;;0.00;98.60;;;;;;2081204;28;20271;-63
2021/10/24 00:35:30;;;;;;;13.87;7.87;;;0.00;98.60;;;;;;2081263;28;20183;-63
2021/10/24 00:36:31;;;;;;;16.07;8.33;;;-0.10;98.60;;;;;;2081202;28;20200;-63
2021/10/24 00:37:32;;;;;;;12.57;8.20;;;-0.10;98.70;;;;;;2082691;28;20189;-63
2021/10/24 00:38:33;;;;;;;11.43;7.27;;;-0.10;98.80;;;;;;2082776;28;20257;-64
2021/10/24 00:39:33;;;;;;;12.47;6.77;;;-0.10;98.90;;;;;;2082865;28;20180;-63
2021/10/24 00:40:34;;;;;;;12.03;7.27;;;-0.10;99.00;;;;;;2082828;28;20601;-64
2021/10/24 00:41:35;;;;;;;12.10;7.47;;;-0.10;99.10;;;;;;2082462;28;20222;-63
2021/10/24 00:42:49;;;;;;;17.65;8.02;;;-0.10;99.10;;;;;;2082889;28;20190;-63
2021/10/24 00:43:49;;;;;;;15.43;7.80;;;-0.10;98.90;;;;;;2082967;28;20171;-63
2021/10/24 00:44:50;;;;;;;15.40;7.83;;;-0.10;98.80;;;;;;2082776;28;20273;-63
2021/10/24 00:45:51;;;;;;;13.07;7.90;;;-0.10;98.70;;;;;;2082765;28;20176;-63
2021/10/24 00:46:54;;;;;;;12.50;6.77;;;-0.10;98.70;;;;;;2082867;28;20234;-63
2021/10/24 00:47:55;;;;;;;13.70;7.72;;;-0.10;98.60;;;;;;2082880;28;20259;-63
2021/10/24 00:48:56;;;;;;;15.33;8.67;;;-0.10;98.50;;;;;;2082736;28;20663;-62
2021/10/24 00:49:57;;;;;;;52.37;26.33;;;-0.10;98.60;;;;;;2082691;28;20838;-63
2021/10/24 00:50:57;;;;;;;69.63;30.47;;;-0.20;98.50;;;;;;2082947;28;20180;-62
2021/10/24 00:51:58;;;;;;;44.30;23.90;;;-0.20;98.50;;;;;;2081961;28;20738;-62
2021/10/24 00:52:59;;;;;;;32.60;16.65;;;-0.20;98.30;;;;;;2073937;28;20652;-63
2021/10/24 00:54:00;;;;;;;30.00;14.63;;;-0.10;98.30;;;;;;2082083;28;20180;-62
2021/10/24 00:55:01;;;;;;;36.47;17.38;;;-0.20;98.20;;;;;;2082675;28;20573;-62
2021/10/24 00:56:02;;;;;;;33.87;16.17;;;-0.10;98.20;;;;;;2082776;28;20180;-63
2021/10/24 00:57:03;;;;;;;43.50;19.35;;;-0.20;98.20;;;;;;2090344;28;20692;-63
2021/10/24 00:58:06;;;;;;;50.58;25.58;;;-0.20;98.20;;;;;;2090516;28;20233;-63
2021/10/24 00:59:08;;;;;;;37.30;17.52;;;-0.20;98.10;;;;;;2082787;28;20180;-63
2021/10/24 01:00:12;;;;;;;28.02;15.48;;;-0.20;98.30;;;;;;2082059;28;20215;-63
2021/10/24 01:01:13;;;;;;;24.15;11.55;;;-0.20;98.50;;;;;;2081847;28;20702;-63
2021/10/24 01:02:13;;;;;;;26.23;11.20;;;-0.20;98.50;;;;;;2082616;28;20179;-63
2021/10/24 01:03:14;;;;;;;20.33;11.10;;;-0.20;98.90;;;;;;2082716;28;20176;-63
2021/10/24 01:04:16;;;;;;;19.20;9.53;;;-0.20;99.10;;;;;;2082807;28;20238;-63
2021/10/24 01:05:17;;;;;;;22.20;10.15;;;-0.20;99.10;;;;;;2082575;28;20207;-63
2021/10/24 01:06:18;;;;;;;20.00;10.03;;;-0.20;99.10;;;;;;2082567;28;20676;-63
2021/10/24 01:07:19;;;;;;;22.53;10.33;;;-0.20;99.00;;;;;;2082770;28;20211;-63
2021/10/24 01:08:20;;;;;;;19.70;9.45;;;-0.10;99.00;;;;;;2081995;28;20188;-63
2021/10/24 01:09:23;;;;;;;17.03;9.30;;;-0.10;98.90;;;;;;2082084;28;20694;-63
2021/10/24 01:10:24;;;;;;;17.85;8.95;;;-0.10;98.90;;;;;;2090169;28;20181;-63
2021/10/24 01:11:27;;;;;;;19.08;9.60;;;-0.10;98.70;;;;;;2090051;28;20187;-62
2021/10/24 01:12:28;;;;;;;18.42;9.85;;;-0.10;98.60;;;;;;2082671;28;20246;-63
2021/10/24 01:13:31;;;;;;;21.97;10.70;;;-0.10;98.60;;;;;;2082513;28;20266;-62
2021/10/24 01:14:32;;;;;;;15.98;8.07;;;-0.20;98.50;;;;;;2082538;28;20667;-63
2021/10/24 01:15:33;;;;;;;17.53;8.83;;;-0.20;98.50;;;;;;2082571;28;20188;-63
2021/10/24 01:16:36;;;;;;;13.20;8.00;;;-0.20;98.70;;;;;;2082457;28;20197;-63
2021/10/24 01:17:36;;;;;;;15.00;7.75;;;-0.20;98.80;;;;;;2082911;28;20199;-63
2021/10/24 01:18:37;;;;;;;12.00;7.43;;;-0.20;99.00;;;;;;2082517;28;20239;-63
2021/10/24 01:19:38;;;;;;;15.93;8.20;;;-0.20;99.00;;;;;;2082687;28;20470;-63
2021/10/24 01:20:38;;;;;;;15.23;8.40;;;-0.20;99.20;;;;;;2082548;28;20183;-63
2021/10/24 01:21:39;;;;;;;13.53;8.50;;;-0.20;99.20;;;;;;2082261;28;20636;-63
2021/10/24 01:22:40;;;;;;;14.67;8.13;;;-0.20;99.30;;;;;;2081957;28;20188;-63
2021/10/24 01:23:42;;;;;;;14.57;7.77;;;-0.10;99.40;;;;;;2081982;28;20231;-63
2021/10/24 01:24:43;;;;;;;15.70;8.13;;;-0.10;99.40;;;;;;2082528;28;20183;-62
2021/10/24 01:25:44;;;;;;;14.68;7.95;;;-0.10;99.40;;;;;;2082515;28;20187;-63
2021/10/24 01:26:45;;;;;;;15.03;7.87;;;-0.10;99.30;;;;;;2082363;28;20577;-61
2021/10/24 01:27:47;;;;;;;12.93;7.27;;;-0.10;99.10;;;;;;2082513;28;20181;-63
2021/10/24 01:28:48;;;;;;;11.48;7.03;;;-0.20;98.90;;;;;;2082385;28;20915;-63
2021/10/24 01:29:49;;;;;;;14.07;7.10;;;-0.20;98.70;;;;;;2082560;28;20216;-63
2021/10/24 01:30:51;;;;;;;15.03;8.07;;;-0.20;98.60;;;;;;2082497;28;20606;-63
2021/10/24 01:31:53;;;;;;;16.30;8.93;;;-0.20;98.60;;;;;;2082272;28;20184;-62
2021/10/24 01:32:54;;;;;;;16.80;9.25;;;-0.20;98.60;;;;;;2082495;28;20188;-63
2021/10/24 01:33:55;;;;;;;17.30;8.53;;;-0.20;98.60;;;;;;2082481;28;20212;-63
2021/10/24 01:34:58;;;;;;;12.63;8.03;;;-0.30;98.50;;;;;;2082553;28;20177;-63
2021/10/24 01:36:03;;;;;;;17.27;8.60;;;-0.30;98.50;;;;;;2082566;28;20188;-63
2021/10/24 01:37:04;;;;;;;12.98;7.65;;;-0.30;98.40;;;;;;2082524;28;20656;-63
2021/10/24 01:38:05;;;;;;;15.90;7.30;;;-0.30;98.30;;;;;;2082416;28;20211;-62
2021/10/24 01:39:05;;;;;;;15.60;7.70;;;-0.30;98.30;;;;;;2082466;28;20185;-63
2021/10/24 01:40:13;;;;;;;14.53;7.60;;;-0.40;98.20;;;;;;2082587;28;20616;-63
2021/10/24 01:41:14;;;;;;;11.85;6.93;;;-0.40;98.20;;;;;;2082080;28;20643;-63
2021/10/24 01:42:14;;;;;;;12.97;6.40;;;-0.40;98.10;;;;;;2082448;28;20191;-63
2021/10/24 01:43:16;;;;;;;9.83;6.60;;;-0.40;98.20;;;;;;2082241;28;20179;-62
2021/10/24 01:44:17;;;;;;;10.45;6.80;;;-0.40;98.20;;;;;;2082421;28;20184;-63
2021/10/24 01:45:20;;;;;;;15.50;7.60;;;-0.40;98.40;;;;;;2082464;28;20196;-62
2021/10/24 01:46:22;;;;;;;12.10;6.72;;;-0.40;98.40;;;;;;2081623;28;20605;-63
2021/10/24 01:47:23;;;;;;;10.02;6.43;;;-0.40;98.50;;;;;;2081755;28;20632;-63
2021/10/24 01:48:24;;;;;;;17.87;8.23;;;-0.40;98.50;;;;;;2081472;28;20212;-63
2021/10/24 01:49:25;;;;;;;12.70;7.50;;;-0.40;98.50;;;;;;2081947;28;20176;-63
2021/10/24 01:50:25;;;;;;;11.97;6.40;;;-0.40;98.60;;;;;;2082279;28;20191;-63
2021/10/24 01:51:26;;;;;;;14.57;7.17;;;-0.40;98.60;;;;;;2082126;28;20226;-63
2021/10/24 01:52:27;;;;;;;18.43;8.97;;;-0.40;98.70;;;;;;2082188;28;20191;-63
2021/10/24 01:53:31;;;;;;;16.57;8.53;;;-0.40;98.50;;;;;;2082289;28;20734;-62
2021/10/24 01:54:32;;;;;;;17.48;8.70;;;-0.50;98.30;;;;;;2081660;28;20176;-63
2021/10/24 01:55:33;;;;;;;14.10;8.30;;;-0.50;98.20;;;;;;2081739;28;20216;-63
2021/10/24 01:56:34;;;;;;;14.45;8.02;;;-0.50;98.00;;;;;;2082179;28;20725;-63
2021/10/24 01:57:34;;;;;;;11.80;6.87;;;-0.50;97.90;;;;;;2082374;28;20188;-63
2021/10/24 01:58:36;;;;;;;13.57;6.93;;;-0.50;97.80;;;;;;2082032;28;20199;-63
2021/10/24 01:59:37;;;;;;;10.18;6.53;;;-0.60;97.60;;;;;;2082239;28;20299;-63
2021/10/24 02:00:38;;;;;;;11.63;6.53;;;-0.60;97.60;;;;;;2082258;28;20188;-62
2021/10/24 02:01:42;;;;;;;14.10;7.43;;;-0.70;97.60;;;;;;2082020;28;20697;-63
2021/10/24 02:02:44;;;;;;;9.80;6.28;;;-0.70;97.90;;;;;;2082216;28;20220;-63
2021/10/24 02:03:44;;;;;;;10.25;6.32;;;-0.70;97.90;;;;;;2082351;28;20312;-63
2021/10/24 02:04:45;;;;;;;11.40;7.10;;;-0.80;98.00;;;;;;2082074;28;20247;-63
2021/10/24 02:05:46;;;;;;;11.07;5.90;;;-0.70;98.00;;;;;;2082234;28;20188;-63
2021/10/24 02:06:47;;;;;;;12.05;6.25;;;-0.80;98.10;;;;;;2082110;28;20757;-63
2021/10/24 02:07:48;;;;;;;9.97;6.07;;;-0.70;98.30;;;;;;2082339;28;20203;-62
2021/10/24 02:08:48;;;;;;;13.70;6.27;;;-0.80;98.30;;;;;;2082185;28;20216;-63
2021/10/24 02:09:49;;;;;;;11.10;5.90;;;-0.80;98.20;;;;;;2082108;28;20238;-63
2021/10/24 02:10:51;;;;;;;10.97;6.10;;;-0.70;98.20;;;;;;2081816;28;20263;-63
2021/10/24 02:11:52;;;;;;;8.77;6.20;;;-0.80;98.20;;;;;;2081984;28;20175;-62
2021/10/24 02:12:53;;;;;;;10.32;6.25;;;-0.80;98.20;;;;;;2082107;28;20210;-63
2021/10/24 02:13:54;;;;;;;10.10;5.77;;;-0.70;98.80;;;;;;2082090;28;20212;-63
2021/10/24 02:14:54;;;;;;;8.60;5.93;;;-0.70;98.30;;;;;;2082103;28;20183;-63
2021/10/24 02:15:55;;;;;;;10.63;5.97;;;-0.70;98.40;;;;;;2082136;28;20184;-63
2021/10/24 02:16:56;;;;;;;9.93;6.20;;;-0.70;98.50;;;;;;2082182;28;20555;-63
2021/10/24 02:17:57;;;;;;;9.00;5.83;;;-0.70;98.60;;;;;;2081406;28;20709;-63
2021/10/24 02:18:57;;;;;;;10.37;6.43;;;-0.80;98.70;;;;;;2087880;28;20262;-63
2021/10/24 02:19:58;;;;;;;12.87;6.53;;;-0.80;98.60;;;;;;2082037;28;20180;-63
2021/10/24 02:20:59;;;;;;;11.23;6.63;;;-0.80;98.70;;;;;;2081896;28;20646;-63
2021/10/24 02:22:00;;;;;;;12.80;6.40;;;-0.80;98.70;;;;;;2082023;28;20563;-61
2021/10/24 02:23:01;;;;;;;11.33;6.10;;;-0.80;98.70;;;;;;2082198;28;20188;-63
2021/10/24 02:24:02;;;;;;;10.65;6.82;;;-0.80;98.70;;;;;;2082055;28;20279;-63
2021/10/24 02:25:04;;;;;;;18.07;8.10;;;-0.80;98.70;;;;;;2082076;28;20217;-63
2021/10/24 02:26:05;;;;;;;16.40;9.25;;;-0.80;98.70;;;;;;2081883;28;20659;-63
2021/10/24 02:27:06;;;;;;;17.40;9.33;;;-0.80;98.60;;;;;;2081971;28;20184;-62
2021/10/24 02:28:07;;;;;;;17.70;8.70;;;-0.80;98.50;;;;;;2082168;28;20605;-62
2021/10/24 02:29:07;;;;;;;17.87;8.87;;;-0.80;98.40;;;;;;2082197;28;20607;-62
2021/10/24 02:30:11;;;;;;;13.47;8.70;;;-0.90;98.30;;;;;;2082055;28;20264;-62
2021/10/24 02:31:11;;;;;;;16.52;8.25;;;-0.90;98.30;;;;;;2081792;28;20577;-63
2021/10/24 02:32:12;;;;;;;12.60;7.40;;;-0.90;98.20;;;;;;2082005;28;20187;-62
2021/10/24 02:33:13;;;;;;;12.40;7.65;;;-0.90;98.20;;;;;;2081894;28;20259;-63
2021/10/24 02:34:14;;;;;;;13.02;7.13;;;-0.90;98.20;;;;;;2081974;28;20179;-63
2021/10/24 02:35:15;;;;;;;12.67;8.20;;;-0.80;98.10;;;;;;2081927;28;20185;-63
2021/10/24 02:36:16;;;;;;;17.13;7.47;;;-0.80;98.20;;;;;;2082185;28;20196;-63
2021/10/24 02:37:16;;;;;;;13.93;7.70;;;-0.90;98.30;;;;;;2081915;28;20215;-62
2021/10/24 02:38:17;;;;;;;12.83;6.67;;;-0.90;98.80;;;;;;2082043;28;20191;-63
2021/10/24 02:39:18;;;;;;;13.60;7.00;;;-0.90;98.30;;;;;;2081947;28;20170;-63
2021/10/24 02:40:19;;;;;;;13.83;7.27;;;-0.90;98.30;;;;;;2082092;28;20534;-63
2021/10/24 02:41:20;;;;;;;14.65;7.85;;;-0.90;98.30;;;;;;2081481;28;20188;-63
2021/10/24 02:42:21;;;;;;;9.80;6.43;;;-0.90;98.20;;;;;;2081793;28;20184;-63
2021/10/24 02:43:22;;;;;;;11.57;7.37;;;-0.90;98.20;;;;;;2081986;28;20190;-63
2021/10/24 02:44:23;;;;;;;11.40;7.00;;;-0.90;98.20;;;;;;2081981;28;20270;-63
2021/10/24 02:45:23;;;;;;;13.32;6.13;;;-0.90;98.30;;;;;;2081904;28;20531;-63
2021/10/24 02:46:24;;;;;;;11.30;6.27;;;-0.90;98.40;;;;;;2081857;28;20251;-63
2021/10/24 02:47:25;;;;;;;10.33;6.07;;;-0.90;98.40;;;;;;2081860;28;20223;-63
2021/10/24 02:48:26;;;;;;;12.23;6.53;;;-0.90;98.40;;;;;;2081914;28;20424;-63
2021/10/24 02:49:27;;;;;;;8.40;5.87;;;-0.90;98.40;;;;;;2081924;28;20187;-63
2021/10/24 02:50:28;;;;;;;8.93;5.28;;;-0.90;98.40;;;;;;2081156;28;20259;-63
2021/10/24 02:51:28;;;;;;;10.37;5.63;;;-0.90;98.40;;;;;;2080930;28;20195;-62
2021/10/24 02:52:29;;;;;;;9.33;5.60;;;-0.90;98.40;;;;;;2081866;28;20176;-63
2021/10/24 02:53:30;;;;;;;9.23;5.37;;;-0.90;98.50;;;;;;2081698;28;20671;-63
2021/10/24 02:54:30;;;;;;;10.70;6.33;;;-0.90;98.50;;;;;;2081848;28;20238;-62
2021/10/24 02:55:31;;;;;;;10.23;6.30;;;-0.90;98.60;;;;;;2081747;28;20187;-63
2021/10/24 02:56:32;;;;;;;11.03;6.43;;;-0.90;98.70;;;;;;2081761;28;20203;-63
2021/10/24 02:57:32;;;;;;;11.30;6.50;;;-0.90;98.70;;;;;;2081746;28;20169;-62
2021/10/24 02:58:33;;;;;;;14.00;7.30;;;-0.90;99.40;;;;;;2081718;28;20639;-62
2021/10/24 02:59:34;;;;;;;13.37;6.77;;;-0.90;99.00;;;;;;2081557;28;20266;-63
2021/10/24 03:00:35;;;;;;;13.47;6.93;;;-0.90;99.20;;;;;;2081640;28;20189;-63
2021/10/24 03:01:35;;;;;;;11.63;6.60;;;-0.90;99.10;;;;;;2081576;28;20237;-63
2021/10/24 03:02:37;;;;;;;13.60;7.07;;;-0.90;99.00;;;;;;2081756;28;20175;-63
2021/10/24 03:03:37;;;;;;;11.43;6.93;;;-0.90;99.00;;;;;;2081628;28;20661;-63
2021/10/24 03:04:38;;;;;;;10.33;5.77;;;-0.90;98.90;;;;;;2081758;28;20271;-63
2021/10/24 03:05:38;;;;;;;15.30;7.10;;;-0.80;99.00;;;;;;2081766;28;20628;-61
2021/10/24 03:06:39;;;;;;;11.57;6.63;;;-0.90;98.80;;;;;;2081614;28;20205;-62
2021/10/24 03:07:40;;;;;;;10.17;6.57;;;-0.90;98.80;;;;;;2081777;28;20184;-63
2021/10/24 03:08:41;;;;;;;10.77;6.47;;;-0.90;98.80;;;;;;2081582;28;20204;-63
2021/10/24 03:09:42;;;;;;;8.97;6.30;;;-0.90;99.20;;;;;;2081706;28;20183;-63
2021/10/24 03:10:43;;;;;;;9.07;5.70;;;-0.90;98.70;;;;;;2081608;28;20180;-63
2021/10/24 03:11:44;;;;;;;11.67;6.10;;;-0.90;98.60;;;;;;2081523;28;20556;-63
2021/10/24 03:12:45;;;;;;;11.97;6.20;;;-0.90;98.50;;;;;;2081794;28;20181;-63
2021/10/24 03:13:45;;;;;;;8.40;5.70;;;-0.90;98.40;;;;;;2081611;28;20275;-62
2021/10/24 03:14:46;;;;;;;12.53;6.17;;;-0.90;98.40;;;;;;2081606;28;20551;-62
2021/10/24 03:15:47;;;;;;;10.07;5.33;;;-0.90;98.40;;;;;;2081672;28;20276;-62
2021/10/24 03:16:48;;;;;;;7.23;5.13;;;-0.90;98.30;;;;;;2081594;28;20207;-63
2021/10/24 03:17:49;;;;;;;10.55;6.22;;;-1.00;98.20;;;;;;2081687;28;20691;-62
2021/10/24 03:18:49;;;;;;;8.87;5.57;;;-1.00;98.10;;;;;;2081743;28;20272;-63
2021/10/24 03:19:50;;;;;;;8.70;5.77;;;-1.00;98.10;;;;;;2081582;28;20184;-63
2021/10/24 03:20:51;;;;;;;10.10;5.93;;;-1.00;98.10;;;;;;2081569;28;20206;-63
2021/10/24 03:21:51;;;;;;;8.37;5.50;;;-1.00;98.10;;;;;;2081459;28;20547;-62
2021/10/24 03:22:52;;;;;;;9.67;6.07;;;-1.00;98.10;;;;;;2081701;28;20197;-63
2021/10/24 03:23:53;;;;;;;11.57;6.03;;;-1.00;98.20;;;;;;2081597;28;20626;-63
2021/10/24 03:24:53;;;;;;;10.00;5.87;;;-1.00;98.30;;;;;;2081491;28;20183;-62
2021/10/24 03:25:54;;;;;;;11.73;6.90;;;-1.10;98.30;;;;;;2081473;28;20177;-63
2021/10/24 03:26:56;;;;;;;10.37;6.60;;;-1.10;98.30;;;;;;2081659;28;20663;-63
2021/10/24 03:27:57;;;;;;;11.70;5.75;;;-1.10;98.30;;;;;;2081573;28;20187;-63
2021/10/24 03:28:58;;;;;;;10.60;6.20;;;-1.10;98.30;;;;;;2081505;28;20192;-62
2021/10/24 03:29:59;;;;;;;12.63;6.07;;;-1.10;98.40;;;;;;2081633;28;20185;-63
2021/10/24 03:31:01;;;;;;;11.10;6.15;;;-1.10;98.40;;;;;;2081292;28;20478;-61
2021/10/24 03:32:02;;;;;;;10.00;6.28;;;-1.10;98.40;;;;;;2081609;28;20190;-62
2021/10/24 03:33:02;;;;;;;8.32;5.88;;;-1.10;98.40;;;;;;2081587;28;20284;-63
2021/10/24 03:34:03;;;;;;;9.00;5.50;;;-1.10;98.40;;;;;;2081606;28;20723;-63
2021/10/24 03:35:04;;;;;;;11.13;6.30;;;-1.10;98.50;;;;;;2081500;28;20178;-62
2021/10/24 03:36:05;;;;;;;11.23;6.50;;;-1.10;98.50;;;;;;2081400;28;20185;-63
2021/10/24 03:37:06;;;;;;;7.75;5.43;;;-1.10;98.50;;;;;;2081424;28;20416;-63
2021/10/24 03:38:07;;;;;;;9.27;5.60;;;-1.10;98.30;;;;;;2081573;28;20694;-63
2021/10/24 03:39:07;;;;;;;14.00;6.00;;;-1.10;98.30;;;;;;2081726;28;20233;-62
2021/10/24 03:40:09;;;;;;;8.37;5.37;;;-1.10;98.20;;;;;;2081491;28;20180;-62
2021/10/24 03:41:12;;;;;;;7.35;4.57;;;-1.10;98.10;;;;;;2081115;28;20205;-62
2021/10/24 03:42:13;;;;;;;9.32;5.25;;;-1.10;98.10;;;;;;2081468;28;20188;-63
2021/10/24 03:43:13;;;;;;;8.37;5.77;;;-1.10;98.10;;;;;;2081494;28;20179;-63
2021/10/24 03:44:14;;;;;;;9.23;6.10;;;-1.10;98.10;;;;;;2081486;28;20597;-63
2021/10/24 03:45:15;;;;;;;10.73;6.37;;;-1.20;98.20;;;;;;2081541;28;20180;-63
2021/10/24 03:46:15;;;;;;;9.73;5.93;;;-1.20;98.40;;;;;;2081311;28;20587;-63
2021/10/24 03:47:16;;;;;;;9.80;5.27;;;-1.20;98.40;;;;;;2081509;28;20172;-62
2021/10/24 03:48:17;;;;;;;8.13;5.53;;;-1.20;98.40;;;;;;2081393;28;20603;-62
2021/10/24 03:49:17;;;;;;;7.90;5.57;;;-1.20;98.30;;;;;;2081442;28;20188;-63
2021/10/24 03:50:18;;;;;;;10.47;5.73;;;-1.20;98.30;;;;;;2081332;28;20230;-63
2021/10/24 03:51:19;;;;;;;8.80;5.57;;;-1.20;98.30;;;;;;2081143;28;20262;-62
2021/10/24 03:52:19;;;;;;;9.73;5.27;;;-1.20;98.30;;;;;;2081380;28;20736;-63
2021/10/24 03:53:20;;;;;;;11.47;5.17;;;-1.20;98.30;;;;;;2081347;28;20211;-63
2021/10/24 03:54:21;;;;;;;8.57;5.33;;;-1.20;98.30;;;;;;2081559;28;20188;-62
2021/10/24 03:55:22;;;;;;;10.23;5.43;;;-1.30;98.20;;;;;;2081407;28;20654;-63
2021/10/24 03:56:23;;;;;;;9.30;5.10;;;-1.30;98.10;;;;;;2081324;28;20213;-63
2021/10/24 03:57:23;;;;;;;7.33;5.40;;;-1.30;98.10;;;;;;2081144;28;20425;-63
2021/10/24 03:58:24;;;;;;;9.53;5.37;;;-1.30;98.00;;;;;;2081268;28;20250;-61
2021/10/24 03:59:25;;;;;;;9.67;5.87;;;-1.30;98.10;;;;;;2081289;28;20179;-62
2021/10/24 04:00:26;;;;;;;10.30;5.23;;;-1.30;98.10;;;;;;2081270;28;20275;-63
2021/10/24 04:01:26;;;;;;;9.30;4.90;;;-1.30;98.10;;;;;;2081174;28;20228;-63
2021/10/24 04:02:28;;;;;;;10.53;5.40;;;-1.30;98.20;;;;;;2081216;28;20190;-63
2021/10/24 04:03:30;;;;;;;7.47;5.22;;;-1.30;98.20;;;;;;2081253;28;20709;-62
2021/10/24 04:04:31;;;;;;;7.78;4.93;;;-1.30;98.20;;;;;;2081275;28;20603;-63
2021/10/24 04:05:33;;;;;;;8.53;5.10;;;-1.30;98.20;;;;;;2081401;28;20193;-63
2021/10/24 04:06:34;;;;;;;9.70;4.90;;;-1.30;98.20;;;;;;2081192;28;20661;-63
2021/10/24 04:07:34;;;;;;;11.20;4.90;;;-1.30;98.20;;;;;;2081323;28;20182;-63
2021/10/24 04:08:35;;;;;;;8.23;5.10;;;-1.30;98.30;;;;;;2081342;28;20181;-63
2021/10/24 04:09:36;;;;;;;9.80;4.77;;;-1.30;98.50;;;;;;2081358;28;20185;-63
2021/10/24 04:10:36;;;;;;;6.23;4.63;;;-1.30;98.50;;;;;;2081247;28;20186;-62
2021/10/24 04:11:38;;;;;;;9.20;5.37;;;-1.30;98.50;;;;;;2080279;28;20189;-62
2021/10/24 04:12:38;;;;;;;9.48;5.10;;;-1.30;98.70;;;;;;2081046;28;20178;-62
2021/10/24 04:13:39;;;;;;;9.00;5.30;;;-1.30;98.80;;;;;;2081282;28;20180;-63
2021/10/24 04:14:41;;;;;;;9.77;5.33;;;-1.30;98.70;;;;;;2081255;28;20558;-63
2021/10/24 04:15:42;;;;;;;9.63;4.95;;;-1.30;98.80;;;;;;2081286;28;20241;-63
2021/10/24 04:16:43;;;;;;;6.80;4.83;;;-1.30;98.80;;;;;;2081156;28;20268;-62
2021/10/24 04:17:45;;;;;;;7.82;4.95;;;-1.30;98.90;;;;;;2081313;28;20432;-63
2021/10/24 04:18:46;;;;;;;10.60;5.20;;;-1.30;98.70;;;;;;2081157;28;20671;-63
2021/10/24 04:19:47;;;;;;;13.37;4.90;;;-1.30;98.60;;;;;;2081450;28;20182;-61
2021/10/24 04:20:48;;;;;;;7.45;4.95;;;-1.30;98.50;;;;;;2081307;28;20600;-63
2021/10/24 04:21:48;;;;;;;9.00;5.17;;;-1.30;98.40;;;;;;2081124;28;20179;-61
2021/10/24 04:22:51;;;;;;;9.97;4.80;;;-1.30;98.40;;;;;;2081251;28;20642;-63
2021/10/24 04:23:51;;;;;;;9.10;5.10;;;-1.30;98.40;;;;;;2081127;28;20741;-63
2021/10/24 04:24:52;;;;;;;7.83;5.33;;;-1.40;98.30;;;;;;2081261;28;20209;-63
2021/10/24 04:25:53;;;;;;;7.80;4.60;;;-1.40;98.30;;;;;;2081166;28;20195;-62
2021/10/24 04:26:56;;;;;;;7.78;4.72;;;-1.30;98.30;;;;;;2081301;28;20182;-62
2021/10/24 04:27:57;;;;;;;8.80;4.50;;;-1.30;98.30;;;;;;2080607;28;20208;-62
2021/10/24 04:28:58;;;;;;;9.07;4.45;;;-1.30;98.20;;;;;;2080726;28;20186;-62
2021/10/24 04:30:00;;;;;;;9.07;4.87;;;-1.30;98.10;;;;;;2081138;28;20669;-62
2021/10/24 04:31:00;;;;;;;6.35;4.65;;;-1.30;98.00;;;;;;2081130;28;20207;-61
2021/10/24 04:32:01;;;;;;;8.93;4.93;;;-1.30;98.00;;;;;;2081441;28;20190;-63
2021/10/24 04:33:02;;;;;;;9.43;5.40;;;-1.30;98.10;;;;;;2081512;28;20186;-63
2021/10/24 04:34:03;;;;;;;8.33;5.30;;;-1.30;98.10;;;;;;2081439;28;20217;-63
2021/10/24 04:35:05;;;;;;;6.97;4.80;;;-1.30;98.10;;;;;;2081285;28;20184;-63
2021/10/24 04:36:06;;;;;;;11.32;5.10;;;-1.30;98.20;;;;;;2081291;28;20539;-63
2021/10/24 04:37:06;;;;;;;7.37;5.20;;;-1.30;98.10;;;;;;2081635;28;20194;-63
2021/10/24 04:38:07;;;;;;;7.53;5.23;;;-1.30;98.10;;;;;;2081451;28;20716;-62
2021/10/24 04:39:08;;;;;;;10.37;5.33;;;-1.30;98.10;;;;;;2081470;28;20194;-62
2021/10/24 04:40:10;;;;;;;10.13;5.57;;;-1.30;98.00;;;;;;2081385;28;20186;-63
2021/10/24 04:41:11;;;;;;;9.35;5.65;;;-1.30;98.00;;;;;;2081248;28;20191;-63
2021/10/24 04:42:11;;;;;;;8.10;5.13;;;-1.30;98.00;;;;;;2081238;28;20754;-63
2021/10/24 04:43:14;;;;;;;6.13;4.67;;;-1.40;98.00;;;;;;2081374;28;20260;-63
2021/10/24 04:44:15;;;;;;;9.30;5.45;;;-1.30;98.10;;;;;;2080750;28;20420;-62
2021/10/24 04:45:16;;;;;;;9.30;5.90;;;-1.30;98.10;;;;;;2080802;28;20259;-62
2021/10/24 04:46:17;;;;;;;8.32;5.28;;;-1.30;98.00;;;;;;2081352;28;20700;-63
2021/10/24 04:47:17;;;;;;;8.33;5.37;;;-1.40;98.00;;;;;;2081390;28;20193;-63
2021/10/24 04:48:18;;;;;;;9.97;6.07;;;-1.40;98.00;;;;;;2081413;28;20569;-63
2021/10/24 04:49:19;;;;;;;10.80;5.97;;;-1.40;98.10;;;;;;2082217;28;20664;-63
2021/10/24 04:50:20;;;;;;;9.70;5.85;;;-1.40;98.10;;;;;;2081057;28;20215;-63
2021/10/24 04:51:21;;;;;;;11.00;5.53;;;-1.40;98.00;;;;;;2080891;28;20190;-63
2021/10/24 04:52:21;;;;;;;8.87;5.53;;;-1.40;98.00;;;;;;2081146;28;20185;-62
2021/10/24 04:53:23;;;;;;;11.57;5.97;;;-1.40;98.10;;;;;;2081243;28;20174;-62
2021/10/24 04:54:24;;;;;;;8.68;5.18;;;-1.40;98.10;;;;;;2081214;28;20182;-62
2021/10/24 04:55:25;;;;;;;9.77;5.10;;;-1.40;98.10;;;;;;2081127;28;20183;-63
2021/10/24 04:56:25;;;;;;;9.03;5.83;;;-1.40;98.00;;;;;;2081069;28;20204;-62
2021/10/24 04:57:26;;;;;;;9.33;5.23;;;-1.50;98.50;;;;;;2081170;28;20764;-63
2021/10/24 04:58:27;;;;;;;12.23;5.45;;;-1.50;98.10;;;;;;2081096;28;20179;-63
2021/10/24 04:59:28;;;;;;;9.90;5.77;;;-1.50;98.10;;;;;;2081134;28;20231;-63
2021/10/24 05:00:28;;;;;;;9.53;5.70;;;-1.40;98.10;;;;;;2081103;28;20202;-63
2021/10/24 05:01:29;;;;;;;9.63;5.90;;;-1.50;98.30;;;;;;2080981;28;20593;-63
2021/10/24 05:02:30;;;;;;;11.50;5.93;;;-1.40;98.30;;;;;;2081137;28;20588;-63
2021/10/24 05:03:31;;;;;;;11.63;5.63;;;-1.50;98.20;;;;;;2081040;28;20197;-63
2021/10/24 05:04:31;;;;;;;11.13;6.38;;;-1.50;98.20;;;;;;2081209;28;20181;-63
2021/10/24 05:05:32;;;;;;;8.83;5.73;;;-1.50;98.30;;;;;;2081127;28;20222;-63
2021/10/24 05:06:33;;;;;;;10.73;5.47;;;-1.40;98.40;;;;;;2081004;28;20207;-63
2021/10/24 05:07:34;;;;;;;9.13;5.70;;;-1.40;98.50;;;;;;2081302;28;20263;-63
2021/10/24 05:08:35;;;;;;;10.87;5.47;;;-1.50;98.60;;;;;;2081122;28;20600;-63
2021/10/24 05:09:35;;;;;;;9.85;5.70;;;-1.40;98.60;;;;;;2081194;28;20199;-62
2021/10/24 05:10:36;;;;;;;7.90;5.27;;;-1.50;98.50;;;;;;2081213;28;20750;-63
2021/10/24 05:11:37;;;;;;;6.47;4.93;;;-1.50;98.40;;;;;;2080822;28;20329;-62
2021/10/24 05:12:37;;;;;;;10.87;5.57;;;-1.50;98.20;;;;;;2081074;28;20704;-61
2021/10/24 05:13:39;;;;;;;6.57;4.97;;;-1.50;98.00;;;;;;2081060;28;20176;-63
2021/10/24 05:14:40;;;;;;;9.23;5.50;;;-1.60;97.90;;;;;;2081195;28;20230;-62
2021/10/24 05:15:40;;;;;;;7.67;4.60;;;-1.60;97.80;;;;;;2081076;28;20194;-63